sensor_id;sensor_type;location;lat;lon;timestamp;P1;durP1;ratioP1;P2;durP2;ratioP2
8165;SDS011;4124;50.856;3.634;2022-09-09T00:00:31;4.70;;;1.30;;
8165;SDS011;4124;50.856;3.634;2022-09-09T00:03:12;3.23;;;1.70;;
8165;SDS011;4124;50.856;3.634;2022-09-09T00:05:54;3.83;;;1.50;;
8165;SDS011;4124;50.856;3.634;2022-09-09T00:08:23;3.77;;;1.57;;
8165;SDS011;4124;50.856;3.634;2022-09-09T00:10:54;1.87;;;1.00;;
8165;SDS011;4124;50.856;3.634;2022-09-09T00:13:44;2.47;;;1.40;;
8165;SDS011;4124;50.856;3.634;2022-09-09T00:16:19;2.67;;;1.27;;
8165;SDS011;4124;50.856;3.634;2022-09-09T00:18:58;1.50;;;1.00;;
8165;SDS011;4124;50.856;3.634;2022-09-09T00:21:33;4.40;;;1.50;;
8165;SDS011;4124;50.856;3.634;2022-09-09T00:24:00;4.10;;;1.70;;
8165;SDS011;4124;50.856;3.634;2022-09-09T00:29:00;3.70;;;1.30;;
8165;SDS011;4124;50.856;3.634;2022-09-09T00:31:29;2.17;;;1.43;;
8165;SDS011;4124;50.856;3.634;2022-09-09T00:33:56;2.33;;;1.30;;
8165;SDS011;4124;50.856;3.634;2022-09-09T00:36:24;3.00;;;1.20;;
8165;SDS011;4124;50.856;3.634;2022-09-09T00:38:57;2.80;;;1.00;;
8165;SDS011;4124;50.856;3.634;2022-09-09T00:41:31;2.03;;;1.20;;
8165;SDS011;4124;50.856;3.634;2022-09-09T00:44:03;4.60;;;1.30;;
8165;SDS011;4124;50.856;3.634;2022-09-09T00:49:13;1.67;;;1.13;;
8165;SDS011;4124;50.856;3.634;2022-09-09T00:51:49;4.30;;;1.60;;
8165;SDS011;4124;50.856;3.634;2022-09-09T00:57:00;1.93;;;1.13;;
8165;SDS011;4124;50.856;3.634;2022-09-09T00:59:35;6.10;;;1.33;;
8165;SDS011;4124;50.856;3.634;2022-09-09T01:02:48;1.63;;;1.07;;
8165;SDS011;4124;50.856;3.634;2022-09-09T01:04:53;3.73;;;1.57;;
8165;SDS011;4124;50.856;3.634;2022-09-09T01:07:19;2.00;;;1.23;;
8165;SDS011;4124;50.856;3.634;2022-09-09T01:09:48;3.00;;;1.23;;
8165;SDS011;4124;50.856;3.634;2022-09-09T01:12:17;3.00;;;1.30;;
8165;SDS011;4124;50.856;3.634;2022-09-09T01:14:44;3.43;;;1.10;;
8165;SDS011;4124;50.856;3.634;2022-09-09T01:17:17;1.83;;;1.10;;
8165;SDS011;4124;50.856;3.634;2022-09-09T01:25:05;1.97;;;1.17;;
8165;SDS011;4124;50.856;3.634;2022-09-09T01:27:28;2.40;;;1.20;;
8165;SDS011;4124;50.856;3.634;2022-09-09T01:29:53;2.40;;;1.10;;
8165;SDS011;4124;50.856;3.634;2022-09-09T01:35:03;2.27;;;1.10;;
8165;SDS011;4124;50.856;3.634;2022-09-09T01:37:31;6.67;;;1.20;;
8165;SDS011;4124;50.856;3.634;2022-09-09T01:39:56;2.37;;;1.40;;
8165;SDS011;4124;50.856;3.634;2022-09-09T01:42:21;4.00;;;1.27;;
8165;SDS011;4124;50.856;3.634;2022-09-09T01:44:47;2.00;;;1.30;;
8165;SDS011;4124;50.856;3.634;2022-09-09T01:47:12;2.00;;;1.20;;
8165;SDS011;4124;50.856;3.634;2022-09-09T01:49:37;2.70;;;1.30;;
8165;SDS011;4124;50.856;3.634;2022-09-09T01:52:02;3.77;;;1.20;;
8165;SDS011;4124;50.856;3.634;2022-09-09T01:54:29;3.70;;;1.23;;
8165;SDS011;4124;50.856;3.634;2022-09-09T02:06:55;3.03;;;1.10;;
8165;SDS011;4124;50.856;3.634;2022-09-09T02:09:23;1.83;;;1.00;;
8165;SDS011;4124;50.856;3.634;2022-09-09T02:11:48;4.17;;;1.30;;
8165;SDS011;4124;50.856;3.634;2022-09-09T02:14:24;3.27;;;1.60;;
8165;SDS011;4124;50.856;3.634;2022-09-09T02:16:51;2.67;;;1.30;;
8165;SDS011;4124;50.856;3.634;2022-09-09T02:19:27;2.07;;;1.40;;
8165;SDS011;4124;50.856;3.634;2022-09-09T02:21:56;2.90;;;1.20;;
8165;SDS011;4124;50.856;3.634;2022-09-09T02:24:22;1.83;;;1.00;;
8165;SDS011;4124;50.856;3.634;2022-09-09T02:26:49;4.17;;;1.40;;
8165;SDS011;4124;50.856;3.634;2022-09-09T02:29:16;5.20;;;1.30;;
8165;SDS011;4124;50.856;3.634;2022-09-09T02:31:43;9.70;;;1.30;;
8165;SDS011;4124;50.856;3.634;2022-09-09T02:34:10;2.47;;;1.30;;
8165;SDS011;4124;50.856;3.634;2022-09-09T02:36:36;3.20;;;1.30;;
8165;SDS011;4124;50.856;3.634;2022-09-09T02:39:03;3.60;;;1.30;;
8165;SDS011;4124;50.856;3.634;2022-09-09T02:41:32;3.13;;;1.47;;
8165;SDS011;4124;50.856;3.634;2022-09-09T02:43:57;4.37;;;1.20;;
8165;SDS011;4124;50.856;3.634;2022-09-09T02:49:20;3.63;;;1.40;;
8165;SDS011;4124;50.856;3.634;2022-09-09T02:54:28;2.70;;;1.10;;
8165;SDS011;4124;50.856;3.634;2022-09-09T02:57:06;3.70;;;1.43;;
8165;SDS011;4124;50.856;3.634;2022-09-09T02:59:33;2.20;;;1.20;;
8165;SDS011;4124;50.856;3.634;2022-09-09T03:01:58;6.10;;;1.53;;
8165;SDS011;4124;50.856;3.634;2022-09-09T03:04:23;2.30;;;1.30;;
8165;SDS011;4124;50.856;3.634;2022-09-09T03:06:49;4.47;;;1.47;;
8165;SDS011;4124;50.856;3.634;2022-09-09T03:09:15;4.80;;;1.57;;
8165;SDS011;4124;50.856;3.634;2022-09-09T03:11:40;2.60;;;1.17;;
8165;SDS011;4124;50.856;3.634;2022-09-09T03:14:05;7.60;;;1.73;;
8165;SDS011;4124;50.856;3.634;2022-09-09T03:16:31;3.23;;;1.33;;
8165;SDS011;4124;50.856;3.634;2022-09-09T03:18:58;5.27;;;1.33;;
8165;SDS011;4124;50.856;3.634;2022-09-09T03:21:23;6.83;;;1.87;;
8165;SDS011;4124;50.856;3.634;2022-09-09T03:23:49;4.00;;;1.40;;
8165;SDS011;4124;50.856;3.634;2022-09-09T03:26:14;7.77;;;1.43;;
8165;SDS011;4124;50.856;3.634;2022-09-09T03:28:40;4.80;;;1.47;;
8165;SDS011;4124;50.856;3.634;2022-09-09T03:31:05;3.30;;;1.17;;
8165;SDS011;4124;50.856;3.634;2022-09-09T03:33:31;3.20;;;1.30;;
8165;SDS011;4124;50.856;3.634;2022-09-09T03:35:56;4.33;;;1.40;;
8165;SDS011;4124;50.856;3.634;2022-09-09T03:38:25;3.77;;;1.47;;
8165;SDS011;4124;50.856;3.634;2022-09-09T03:40:51;3.87;;;1.40;;
8165;SDS011;4124;50.856;3.634;2022-09-09T03:43:18;5.40;;;1.53;;
8165;SDS011;4124;50.856;3.634;2022-09-09T03:45:45;6.90;;;1.60;;
8165;SDS011;4124;50.856;3.634;2022-09-09T03:48:12;9.93;;;1.97;;
8165;SDS011;4124;50.856;3.634;2022-09-09T03:50:37;4.97;;;1.60;;
8165;SDS011;4124;50.856;3.634;2022-09-09T03:53:02;860.47;;;776.33;;
8165;SDS011;4124;50.856;3.634;2022-09-09T03:55:27;858.03;;;773.90;;
8165;SDS011;4124;50.856;3.634;2022-09-09T03:57:52;875.27;;;788.40;;
8165;SDS011;4124;50.856;3.634;2022-09-09T04:00:18;856.13;;;772.13;;
8165;SDS011;4124;50.856;3.634;2022-09-09T04:02:43;870.40;;;785.30;;
8165;SDS011;4124;50.856;3.634;2022-09-09T04:05:08;855.47;;;771.67;;
8165;SDS011;4124;50.856;3.634;2022-09-09T04:07:34;861.43;;;777.20;;
8165;SDS011;4124;50.856;3.634;2022-09-09T04:09:59;866.90;;;782.30;;
8165;SDS011;4124;50.856;3.634;2022-09-09T04:12:24;865.50;;;781.00;;
8165;SDS011;4124;50.856;3.634;2022-09-09T04:14:50;857.37;;;773.50;;
8165;SDS011;4124;50.856;3.634;2022-09-09T04:17:15;861.57;;;777.27;;
8165;SDS011;4124;50.856;3.634;2022-09-09T04:19:40;861.10;;;776.80;;
8165;SDS011;4124;50.856;3.634;2022-09-09T04:22:07;860.83;;;776.53;;
8165;SDS011;4124;50.856;3.634;2022-09-09T04:24:32;859.37;;;775.10;;
8165;SDS011;4124;50.856;3.634;2022-09-09T04:26:57;854.57;;;770.93;;
8165;SDS011;4124;50.856;3.634;2022-09-09T04:29:22;867.97;;;783.27;;
8165;SDS011;4124;50.856;3.634;2022-09-09T04:31:48;855.67;;;771.87;;
8165;SDS011;4124;50.856;3.634;2022-09-09T04:34:13;867.80;;;781.87;;
8165;SDS011;4124;50.856;3.634;2022-09-09T04:36:38;6.23;;;1.97;;
8165;SDS011;4124;50.856;3.634;2022-09-09T04:39:05;4.43;;;1.67;;
8165;SDS011;4124;50.856;3.634;2022-09-09T04:41:30;7.10;;;1.70;;
8165;SDS011;4124;50.856;3.634;2022-09-09T04:43:56;5.60;;;1.70;;
8165;SDS011;4124;50.856;3.634;2022-09-09T04:46:22;6.07;;;1.90;;
8165;SDS011;4124;50.856;3.634;2022-09-09T04:48:48;4.57;;;1.83;;
8165;SDS011;4124;50.856;3.634;2022-09-09T04:51:14;4.70;;;1.87;;
8165;SDS011;4124;50.856;3.634;2022-09-09T04:53:39;4.17;;;1.63;;
8165;SDS011;4124;50.856;3.634;2022-09-09T04:56:09;8.30;;;2.37;;
8165;SDS011;4124;50.856;3.634;2022-09-09T04:58:35;3.23;;;1.40;;
8165;SDS011;4124;50.856;3.634;2022-09-09T05:01:19;6.73;;;2.27;;
8165;SDS011;4124;50.856;3.634;2022-09-09T05:03:46;7.60;;;2.00;;
8165;SDS011;4124;50.856;3.634;2022-09-09T05:06:12;6.90;;;2.70;;
8165;SDS011;4124;50.856;3.634;2022-09-09T05:08:38;5.37;;;1.90;;
8165;SDS011;4124;50.856;3.634;2022-09-09T05:11:11;7.67;;;1.87;;
8165;SDS011;4124;50.856;3.634;2022-09-09T05:13:37;7.50;;;2.10;;
8165;SDS011;4124;50.856;3.634;2022-09-09T05:16:02;5.57;;;1.83;;
8165;SDS011;4124;50.856;3.634;2022-09-09T05:18:28;8.77;;;2.00;;
8165;SDS011;4124;50.856;3.634;2022-09-09T05:20:58;6.37;;;1.70;;
8165;SDS011;4124;50.856;3.634;2022-09-09T05:23:23;4.80;;;2.00;;
8165;SDS011;4124;50.856;3.634;2022-09-09T05:25:55;9.80;;;2.40;;
8165;SDS011;4124;50.856;3.634;2022-09-09T05:28:21;5.43;;;1.70;;
8165;SDS011;4124;50.856;3.634;2022-09-09T05:30:54;5.63;;;1.77;;
8165;SDS011;4124;50.856;3.634;2022-09-09T05:33:19;5.83;;;1.77;;
8165;SDS011;4124;50.856;3.634;2022-09-09T05:35:46;5.60;;;1.80;;
8165;SDS011;4124;50.856;3.634;2022-09-09T05:38:11;3.80;;;1.63;;
8165;SDS011;4124;50.856;3.634;2022-09-09T05:40:36;3.63;;;1.73;;
8165;SDS011;4124;50.856;3.634;2022-09-09T05:43:01;6.10;;;1.83;;
8165;SDS011;4124;50.856;3.634;2022-09-09T05:45:26;4.80;;;1.90;;
8165;SDS011;4124;50.856;3.634;2022-09-09T05:47:52;6.27;;;2.17;;
8165;SDS011;4124;50.856;3.634;2022-09-09T05:50:20;6.43;;;1.50;;
8165;SDS011;4124;50.856;3.634;2022-09-09T05:52:45;5.30;;;1.60;;
8165;SDS011;4124;50.856;3.634;2022-09-09T05:55:10;4.87;;;1.70;;
8165;SDS011;4124;50.856;3.634;2022-09-09T05:57:36;6.27;;;1.70;;
8165;SDS011;4124;50.856;3.634;2022-09-09T06:00:01;5.73;;;1.90;;
8165;SDS011;4124;50.856;3.634;2022-09-09T06:02:26;7.27;;;2.00;;
8165;SDS011;4124;50.856;3.634;2022-09-09T06:04:51;6.33;;;2.00;;
8165;SDS011;4124;50.856;3.634;2022-09-09T06:07:17;3.20;;;1.77;;
8165;SDS011;4124;50.856;3.634;2022-09-09T06:09:42;6.03;;;1.67;;
8165;SDS011;4124;50.856;3.634;2022-09-09T06:12:08;7.10;;;1.87;;
8165;SDS011;4124;50.856;3.634;2022-09-09T06:14:33;5.97;;;1.90;;
8165;SDS011;4124;50.856;3.634;2022-09-09T06:16:59;4.57;;;1.97;;
8165;SDS011;4124;50.856;3.634;2022-09-09T06:19:24;7.87;;;2.10;;
8165;SDS011;4124;50.856;3.634;2022-09-09T06:21:51;4.90;;;1.93;;
8165;SDS011;4124;50.856;3.634;2022-09-09T06:24:17;10.93;;;1.80;;
8165;SDS011;4124;50.856;3.634;2022-09-09T06:26:44;8.13;;;2.33;;
8165;SDS011;4124;50.856;3.634;2022-09-09T06:29:10;5.43;;;2.50;;
8165;SDS011;4124;50.856;3.634;2022-09-09T06:31:35;7.00;;;1.93;;
8165;SDS011;4124;50.856;3.634;2022-09-09T06:34:01;5.23;;;1.57;;
8165;SDS011;4124;50.856;3.634;2022-09-09T06:36:28;7.93;;;2.73;;
8165;SDS011;4124;50.856;3.634;2022-09-09T06:38:53;9.43;;;2.03;;
8165;SDS011;4124;50.856;3.634;2022-09-09T06:41:20;7.30;;;1.80;;
8165;SDS011;4124;50.856;3.634;2022-09-09T06:43:45;5.63;;;2.03;;
8165;SDS011;4124;50.856;3.634;2022-09-09T06:46:12;9.67;;;2.20;;
8165;SDS011;4124;50.856;3.634;2022-09-09T06:48:41;6.47;;;2.00;;
8165;SDS011;4124;50.856;3.634;2022-09-09T06:51:16;6.30;;;2.00;;
8165;SDS011;4124;50.856;3.634;2022-09-09T06:53:42;7.00;;;2.23;;
8165;SDS011;4124;50.856;3.634;2022-09-09T06:58:34;7.30;;;1.80;;
8165;SDS011;4124;50.856;3.634;2022-09-09T07:01:06;3.30;;;1.57;;
8165;SDS011;4124;50.856;3.634;2022-09-09T07:03:31;4.87;;;1.73;;
8165;SDS011;4124;50.856;3.634;2022-09-09T07:05:57;4.70;;;1.50;;
8165;SDS011;4124;50.856;3.634;2022-09-09T07:08:23;6.87;;;1.87;;
8165;SDS011;4124;50.856;3.634;2022-09-09T07:10:49;7.87;;;2.50;;
8165;SDS011;4124;50.856;3.634;2022-09-09T07:13:16;5.57;;;2.03;;
8165;SDS011;4124;50.856;3.634;2022-09-09T07:15:41;4.97;;;1.57;;
8165;SDS011;4124;50.856;3.634;2022-09-09T07:18:06;8.60;;;2.20;;
8165;SDS011;4124;50.856;3.634;2022-09-09T07:20:32;7.40;;;2.17;;
8165;SDS011;4124;50.856;3.634;2022-09-09T07:22:57;12.23;;;1.80;;
8165;SDS011;4124;50.856;3.634;2022-09-09T07:25:23;7.37;;;1.60;;
8165;SDS011;4124;50.856;3.634;2022-09-09T07:27:48;6.90;;;2.00;;
8165;SDS011;4124;50.856;3.634;2022-09-09T07:30:14;7.97;;;2.20;;
8165;SDS011;4124;50.856;3.634;2022-09-09T07:32:39;9.23;;;2.03;;
8165;SDS011;4124;50.856;3.634;2022-09-09T07:35:05;4.07;;;1.80;;
8165;SDS011;4124;50.856;3.634;2022-09-09T07:37:30;7.00;;;2.07;;
8165;SDS011;4124;50.856;3.634;2022-09-09T07:39:55;7.90;;;2.30;;
8165;SDS011;4124;50.856;3.634;2022-09-09T07:42:20;7.20;;;2.10;;
8165;SDS011;4124;50.856;3.634;2022-09-09T07:44:46;5.63;;;1.40;;
8165;SDS011;4124;50.856;3.634;2022-09-09T07:47:11;4.77;;;1.97;;
8165;SDS011;4124;50.856;3.634;2022-09-09T07:49:36;7.07;;;2.10;;
8165;SDS011;4124;50.856;3.634;2022-09-09T07:52:01;10.87;;;2.10;;
8165;SDS011;4124;50.856;3.634;2022-09-09T07:54:28;5.73;;;2.10;;
8165;SDS011;4124;50.856;3.634;2022-09-09T07:56:53;8.83;;;2.27;;
8165;SDS011;4124;50.856;3.634;2022-09-09T07:59:18;4.70;;;1.50;;
8165;SDS011;4124;50.856;3.634;2022-09-09T08:01:48;6.57;;;1.87;;
8165;SDS011;4124;50.856;3.634;2022-09-09T08:04:14;9.40;;;1.97;;
8165;SDS011;4124;50.856;3.634;2022-09-09T08:06:42;5.40;;;1.60;;
8165;SDS011;4124;50.856;3.634;2022-09-09T08:09:08;4.20;;;1.70;;
8165;SDS011;4124;50.856;3.634;2022-09-09T08:11:33;4.70;;;2.03;;
8165;SDS011;4124;50.856;3.634;2022-09-09T08:13:59;6.10;;;1.90;;
8165;SDS011;4124;50.856;3.634;2022-09-09T08:16:28;5.93;;;1.93;;
8165;SDS011;4124;50.856;3.634;2022-09-09T08:18:55;4.57;;;1.60;;
8165;SDS011;4124;50.856;3.634;2022-09-09T08:21:22;7.83;;;2.03;;
8165;SDS011;4124;50.856;3.634;2022-09-09T08:23:49;6.83;;;2.10;;
8165;SDS011;4124;50.856;3.634;2022-09-09T08:26:16;4.67;;;1.80;;
8165;SDS011;4124;50.856;3.634;2022-09-09T08:28:42;8.17;;;1.90;;
8165;SDS011;4124;50.856;3.634;2022-09-09T08:33:32;6.03;;;1.90;;
8165;SDS011;4124;50.856;3.634;2022-09-09T08:35:58;6.20;;;2.00;;
8165;SDS011;4124;50.856;3.634;2022-09-09T08:38:23;9.80;;;1.90;;
8165;SDS011;4124;50.856;3.634;2022-09-09T08:40:49;5.90;;;1.50;;
8165;SDS011;4124;50.856;3.634;2022-09-09T08:43:19;5.80;;;1.80;;
8165;SDS011;4124;50.856;3.634;2022-09-09T08:45:50;9.03;;;2.33;;
8165;SDS011;4124;50.856;3.634;2022-09-09T08:50:45;5.90;;;2.00;;
8165;SDS011;4124;50.856;3.634;2022-09-09T08:53:18;3.83;;;1.60;;
8165;SDS011;4124;50.856;3.634;2022-09-09T09:03:24;6.27;;;2.00;;
8165;SDS011;4124;50.856;3.634;2022-09-09T09:08:39;6.33;;;1.93;;
8165;SDS011;4124;50.856;3.634;2022-09-09T09:11:08;5.23;;;1.70;;
8165;SDS011;4124;50.856;3.634;2022-09-09T09:13:54;3.13;;;1.70;;
8165;SDS011;4124;50.856;3.634;2022-09-09T09:18:47;3.73;;;1.70;;
8165;SDS011;4124;50.856;3.634;2022-09-09T09:23:45;4.87;;;2.73;;
8165;SDS011;4124;50.856;3.634;2022-09-09T09:26:12;6.30;;;2.00;;
8165;SDS011;4124;50.856;3.634;2022-09-09T09:28:42;5.17;;;1.70;;
8165;SDS011;4124;50.856;3.634;2022-09-09T09:31:09;5.23;;;1.83;;
8165;SDS011;4124;50.856;3.634;2022-09-09T09:36:08;5.43;;;1.80;;
8165;SDS011;4124;50.856;3.634;2022-09-09T09:38:34;6.13;;;1.97;;
8165;SDS011;4124;50.856;3.634;2022-09-09T09:40:59;4.07;;;1.60;;
8165;SDS011;4124;50.856;3.634;2022-09-09T09:43:29;6.43;;;1.87;;
8165;SDS011;4124;50.856;3.634;2022-09-09T09:45:54;4.43;;;1.70;;
8165;SDS011;4124;50.856;3.634;2022-09-09T09:48:20;3.77;;;1.60;;
8165;SDS011;4124;50.856;3.634;2022-09-09T09:50:56;7.13;;;1.70;;
8165;SDS011;4124;50.856;3.634;2022-09-09T09:53:26;4.33;;;1.97;;
8165;SDS011;4124;50.856;3.634;2022-09-09T09:56:01;4.20;;;1.50;;
8165;SDS011;4124;50.856;3.634;2022-09-09T09:58:27;3.53;;;1.27;;
8165;SDS011;4124;50.856;3.634;2022-09-09T10:00:56;4.20;;;1.70;;
8165;SDS011;4124;50.856;3.634;2022-09-09T10:05:47;7.40;;;2.00;;
8165;SDS011;4124;50.856;3.634;2022-09-09T10:08:15;4.77;;;1.80;;
8165;SDS011;4124;50.856;3.634;2022-09-09T10:13:38;9.73;;;1.80;;
8165;SDS011;4124;50.856;3.634;2022-09-09T10:19:03;4.20;;;1.70;;
8165;SDS011;4124;50.856;3.634;2022-09-09T10:26:34;3.97;;;1.70;;
8165;SDS011;4124;50.856;3.634;2022-09-09T10:29:05;4.83;;;2.10;;
8165;SDS011;4124;50.856;3.634;2022-09-09T10:39:59;3.03;;;1.70;;
8165;SDS011;4124;50.856;3.634;2022-09-09T10:42:28;5.90;;;2.10;;
8165;SDS011;4124;50.856;3.634;2022-09-09T10:45:14;6.00;;;1.90;;
8165;SDS011;4124;50.856;3.634;2022-09-09T10:50:37;1.87;;;1.20;;
8165;SDS011;4124;50.856;3.634;2022-09-09T10:55:39;4.00;;;1.80;;
8165;SDS011;4124;50.856;3.634;2022-09-09T10:58:05;3.53;;;1.57;;
8165;SDS011;4124;50.856;3.634;2022-09-09T11:00:38;5.40;;;1.80;;
8165;SDS011;4124;50.856;3.634;2022-09-09T11:03:04;2.80;;;1.67;;
8165;SDS011;4124;50.856;3.634;2022-09-09T11:08:27;4.80;;;1.63;;
8165;SDS011;4124;50.856;3.634;2022-09-09T11:11:09;3.40;;;1.47;;
8165;SDS011;4124;50.856;3.634;2022-09-09T11:13:39;6.93;;;1.83;;
8165;SDS011;4124;50.856;3.634;2022-09-09T11:16:15;3.33;;;1.50;;
8165;SDS011;4124;50.856;3.634;2022-09-09T11:18:42;8.47;;;2.00;;
8165;SDS011;4124;50.856;3.634;2022-09-09T11:21:10;3.80;;;1.53;;
8165;SDS011;4124;50.856;3.634;2022-09-09T11:23:42;4.50;;;1.50;;
8165;SDS011;4124;50.856;3.634;2022-09-09T11:26:11;3.13;;;1.53;;
8165;SDS011;4124;50.856;3.634;2022-09-09T11:38:56;2.83;;;1.67;;
8165;SDS011;4124;50.856;3.634;2022-09-09T11:41:23;3.33;;;1.60;;
8165;SDS011;4124;50.856;3.634;2022-09-09T11:43:48;3.87;;;1.60;;
8165;SDS011;4124;50.856;3.634;2022-09-09T11:46:16;6.03;;;1.80;;
8165;SDS011;4124;50.856;3.634;2022-09-09T11:48:43;2.50;;;1.40;;
8165;SDS011;4124;50.856;3.634;2022-09-09T11:51:11;4.13;;;1.60;;
8165;SDS011;4124;50.856;3.634;2022-09-09T11:53:47;5.50;;;1.87;;
8165;SDS011;4124;50.856;3.634;2022-09-09T11:56:22;4.53;;;1.43;;
8165;SDS011;4124;50.856;3.634;2022-09-09T11:58:55;5.57;;;1.50;;
8165;SDS011;4124;50.856;3.634;2022-09-09T12:01:28;5.47;;;1.90;;
8165;SDS011;4124;50.856;3.634;2022-09-09T12:06:45;5.53;;;1.53;;
8165;SDS011;4124;50.856;3.634;2022-09-09T12:09:19;3.10;;;1.80;;
8165;SDS011;4124;50.856;3.634;2022-09-09T12:11:44;3.77;;;1.90;;
8165;SDS011;4124;50.856;3.634;2022-09-09T12:14:19;2.80;;;1.50;;
8165;SDS011;4124;50.856;3.634;2022-09-09T12:16:45;1.50;;;1.30;;
8165;SDS011;4124;50.856;3.634;2022-09-09T12:19:15;3.77;;;1.50;;
8165;SDS011;4124;50.856;3.634;2022-09-09T12:24:09;2.90;;;1.60;;
8165;SDS011;4124;50.856;3.634;2022-09-09T12:26:50;4.53;;;1.30;;
8165;SDS011;4124;50.856;3.634;2022-09-09T12:34:38;4.90;;;1.57;;
8165;SDS011;4124;50.856;3.634;2022-09-09T12:39:49;3.93;;;1.53;;
8165;SDS011;4124;50.856;3.634;2022-09-09T12:42:20;3.63;;;1.50;;
8165;SDS011;4124;50.856;3.634;2022-09-09T12:44:52;4.80;;;1.50;;
8165;SDS011;4124;50.856;3.634;2022-09-09T12:47:17;2.83;;;1.43;;
8165;SDS011;4124;50.856;3.634;2022-09-09T12:49:43;3.57;;;1.93;;
8165;SDS011;4124;50.856;3.634;2022-09-09T12:52:18;4.63;;;1.70;;
8165;SDS011;4124;50.856;3.634;2022-09-09T12:54:45;2.73;;;1.47;;
8165;SDS011;4124;50.856;3.634;2022-09-09T12:57:16;3.70;;;1.33;;
8165;SDS011;4124;50.856;3.634;2022-09-09T12:59:42;2.60;;;1.53;;
8165;SDS011;4124;50.856;3.634;2022-09-09T13:02:24;4.53;;;1.80;;
8165;SDS011;4124;50.856;3.634;2022-09-09T13:04:52;3.00;;;1.30;;
8165;SDS011;4124;50.856;3.634;2022-09-09T13:07:18;4.50;;;1.47;;
8165;SDS011;4124;50.856;3.634;2022-09-09T13:09:44;5.43;;;1.47;;
8165;SDS011;4124;50.856;3.634;2022-09-09T13:12:12;2.70;;;1.47;;
8165;SDS011;4124;50.856;3.634;2022-09-09T13:14:38;5.83;;;1.97;;
8165;SDS011;4124;50.856;3.634;2022-09-09T13:17:04;1.60;;;1.27;;
8165;SDS011;4124;50.856;3.634;2022-09-09T13:19:35;4.23;;;1.77;;
8165;SDS011;4124;50.856;3.634;2022-09-09T13:22:14;2.70;;;1.40;;
8165;SDS011;4124;50.856;3.634;2022-09-09T13:24:43;3.17;;;1.30;;
8165;SDS011;4124;50.856;3.634;2022-09-09T13:29:52;2.93;;;1.40;;
8165;SDS011;4124;50.856;3.634;2022-09-09T13:32:20;2.30;;;1.20;;
8165;SDS011;4124;50.856;3.634;2022-09-09T13:34:55;3.67;;;1.60;;
8165;SDS011;4124;50.856;3.634;2022-09-09T13:37:22;3.27;;;1.63;;
8165;SDS011;4124;50.856;3.634;2022-09-09T13:39:52;4.50;;;1.33;;
8165;SDS011;4124;50.856;3.634;2022-09-09T13:42:25;2.10;;;1.43;;
8165;SDS011;4124;50.856;3.634;2022-09-09T13:44:51;2.20;;;1.30;;
8165;SDS011;4124;50.856;3.634;2022-09-09T13:47:20;7.50;;;2.00;;
8165;SDS011;4124;50.856;3.634;2022-09-09T13:49:46;3.20;;;1.37;;
8165;SDS011;4124;50.856;3.634;2022-09-09T13:52:15;3.57;;;1.30;;
8165;SDS011;4124;50.856;3.634;2022-09-09T13:54:42;3.43;;;1.50;;
8165;SDS011;4124;50.856;3.634;2022-09-09T13:57:14;3.13;;;1.60;;
8165;SDS011;4124;50.856;3.634;2022-09-09T13:59:40;2.53;;;1.40;;
8165;SDS011;4124;50.856;3.634;2022-09-09T14:02:06;4.50;;;1.80;;
8165;SDS011;4124;50.856;3.634;2022-09-09T14:04:31;4.27;;;1.53;;
8165;SDS011;4124;50.856;3.634;2022-09-09T14:06:57;2.93;;;2.00;;
8165;SDS011;4124;50.856;3.634;2022-09-09T14:09:23;2.80;;;1.50;;
8165;SDS011;4124;50.856;3.634;2022-09-09T14:11:48;6.90;;;1.70;;
8165;SDS011;4124;50.856;3.634;2022-09-09T14:14:13;6.30;;;1.70;;
8165;SDS011;4124;50.856;3.634;2022-09-09T14:16:38;2.70;;;1.40;;
8165;SDS011;4124;50.856;3.634;2022-09-09T14:19:04;4.50;;;1.77;;
8165;SDS011;4124;50.856;3.634;2022-09-09T14:21:29;2.63;;;1.40;;
8165;SDS011;4124;50.856;3.634;2022-09-09T14:23:54;5.53;;;2.23;;
8165;SDS011;4124;50.856;3.634;2022-09-09T14:26:20;6.83;;;2.50;;
8165;SDS011;4124;50.856;3.634;2022-09-09T14:28:46;5.30;;;1.60;;
8165;SDS011;4124;50.856;3.634;2022-09-09T14:31:11;3.37;;;1.70;;
8165;SDS011;4124;50.856;3.634;2022-09-09T14:33:38;5.70;;;2.00;;
8165;SDS011;4124;50.856;3.634;2022-09-09T14:36:03;2.53;;;1.50;;
8165;SDS011;4124;50.856;3.634;2022-09-09T14:38:29;5.77;;;1.40;;
8165;SDS011;4124;50.856;3.634;2022-09-09T14:40:54;2.90;;;1.83;;
8165;SDS011;4124;50.856;3.634;2022-09-09T14:43:21;4.13;;;1.50;;
8165;SDS011;4124;50.856;3.634;2022-09-09T14:45:46;4.70;;;1.70;;
8165;SDS011;4124;50.856;3.634;2022-09-09T14:48:13;3.70;;;1.57;;
8165;SDS011;4124;50.856;3.634;2022-09-09T14:50:39;3.50;;;1.57;;
8165;SDS011;4124;50.856;3.634;2022-09-09T14:53:05;3.23;;;1.60;;
8165;SDS011;4124;50.856;3.634;2022-09-09T14:55:30;3.87;;;1.57;;
8165;SDS011;4124;50.856;3.634;2022-09-09T14:57:56;3.63;;;1.50;;
8165;SDS011;4124;50.856;3.634;2022-09-09T15:00:21;3.00;;;1.47;;
8165;SDS011;4124;50.856;3.634;2022-09-09T15:02:46;1.83;;;1.57;;
8165;SDS011;4124;50.856;3.634;2022-09-09T15:05:12;1.83;;;1.30;;
8165;SDS011;4124;50.856;3.634;2022-09-09T15:07:37;6.83;;;1.80;;
8165;SDS011;4124;50.856;3.634;2022-09-09T15:10:03;6.10;;;1.60;;
8165;SDS011;4124;50.856;3.634;2022-09-09T15:12:28;3.37;;;1.33;;
8165;SDS011;4124;50.856;3.634;2022-09-09T15:14:53;3.93;;;1.50;;
8165;SDS011;4124;50.856;3.634;2022-09-09T15:17:19;3.33;;;1.33;;
8165;SDS011;4124;50.856;3.634;2022-09-09T15:19:45;4.60;;;1.33;;
8165;SDS011;4124;50.856;3.634;2022-09-09T15:22:10;5.00;;;1.80;;
8165;SDS011;4124;50.856;3.634;2022-09-09T15:24:35;2.40;;;1.37;;
8165;SDS011;4124;50.856;3.634;2022-09-09T15:27:01;3.40;;;1.90;;
8165;SDS011;4124;50.856;3.634;2022-09-09T15:29:27;2.27;;;1.40;;
8165;SDS011;4124;50.856;3.634;2022-09-09T15:31:55;4.00;;;1.40;;
8165;SDS011;4124;50.856;3.634;2022-09-09T15:34:20;8.10;;;2.33;;
8165;SDS011;4124;50.856;3.634;2022-09-09T15:36:46;2.90;;;1.70;;
8165;SDS011;4124;50.856;3.634;2022-09-09T15:39:12;3.50;;;1.87;;
8165;SDS011;4124;50.856;3.634;2022-09-09T15:41:38;3.87;;;1.67;;
8165;SDS011;4124;50.856;3.634;2022-09-09T15:44:04;3.70;;;1.50;;
8165;SDS011;4124;50.856;3.634;2022-09-09T15:46:34;3.50;;;1.70;;
8165;SDS011;4124;50.856;3.634;2022-09-09T15:49:06;4.67;;;1.80;;
8165;SDS011;4124;50.856;3.634;2022-09-09T15:51:31;2.73;;;1.47;;
8165;SDS011;4124;50.856;3.634;2022-09-09T15:53:57;4.57;;;1.40;;
8165;SDS011;4124;50.856;3.634;2022-09-09T15:56:23;4.43;;;1.90;;
8165;SDS011;4124;50.856;3.634;2022-09-09T15:58:48;2.60;;;1.70;;
8165;SDS011;4124;50.856;3.634;2022-09-09T16:01:13;3.23;;;1.73;;
8165;SDS011;4124;50.856;3.634;2022-09-09T16:03:40;4.40;;;1.60;;
8165;SDS011;4124;50.856;3.634;2022-09-09T16:06:08;3.53;;;1.50;;
8165;SDS011;4124;50.856;3.634;2022-09-09T16:08:37;2.70;;;1.60;;
8165;SDS011;4124;50.856;3.634;2022-09-09T16:11:04;2.10;;;1.00;;
8165;SDS011;4124;50.856;3.634;2022-09-09T16:13:32;4.23;;;1.90;;
8165;SDS011;4124;50.856;3.634;2022-09-09T16:15:58;2.23;;;1.20;;
8165;SDS011;4124;50.856;3.634;2022-09-09T16:18:23;5.03;;;1.50;;
8165;SDS011;4124;50.856;3.634;2022-09-09T16:20:54;2.03;;;1.33;;
8165;SDS011;4124;50.856;3.634;2022-09-09T16:23:20;3.20;;;1.30;;
8165;SDS011;4124;50.856;3.634;2022-09-09T16:25:53;1.90;;;1.30;;
8165;SDS011;4124;50.856;3.634;2022-09-09T16:28:18;3.30;;;1.23;;
8165;SDS011;4124;50.856;3.634;2022-09-09T16:30:43;4.03;;;1.40;;
8165;SDS011;4124;50.856;3.634;2022-09-09T16:33:08;2.23;;;1.37;;
8165;SDS011;4124;50.856;3.634;2022-09-09T16:35:36;4.43;;;1.10;;
8165;SDS011;4124;50.856;3.634;2022-09-09T16:38:01;8.47;;;1.83;;
8165;SDS011;4124;50.856;3.634;2022-09-09T16:40:27;2.30;;;1.20;;
8165;SDS011;4124;50.856;3.634;2022-09-09T16:42:52;2.73;;;1.53;;
8165;SDS011;4124;50.856;3.634;2022-09-09T16:45:17;2.70;;;1.53;;
8165;SDS011;4124;50.856;3.634;2022-09-09T16:47:42;4.17;;;1.30;;
8165;SDS011;4124;50.856;3.634;2022-09-09T16:50:08;2.17;;;1.20;;
8165;SDS011;4124;50.856;3.634;2022-09-09T16:52:34;2.80;;;1.50;;
8165;SDS011;4124;50.856;3.634;2022-09-09T16:54:59;4.53;;;1.80;;
8165;SDS011;4124;50.856;3.634;2022-09-09T16:57:24;4.77;;;1.40;;
8165;SDS011;4124;50.856;3.634;2022-09-09T16:59:49;4.33;;;1.50;;
8165;SDS011;4124;50.856;3.634;2022-09-09T17:02:18;6.03;;;1.90;;
8165;SDS011;4124;50.856;3.634;2022-09-09T17:04:44;3.23;;;1.50;;
8165;SDS011;4124;50.856;3.634;2022-09-09T17:07:09;5.93;;;2.70;;